Time;durP1;ratioP1;P1;durP2;ratioP2;P2;SDS_P1;SDS_P2;PMS_P1;PMS_P2;Temp;Humidity;BMP_temperature;BMP_pressure;BME280_temperature;BME280_humidity;BME280_pressure;Samples;Min_cycle;Max_cycle;Signal;HPM_P1;HPM_P2
2024/02/21 00:00:52;;;;;;;3.37;3.07;;;16.10;1.00;;;;;;2613013;47;20536;-73
2024/02/21 00:03:18;;;;;;;3.40;3.03;;;16.10;1.00;;;;;;2612613;54;20286;-72
2024/02/21 00:05:44;;;;;;;3.30;3.00;;;16.10;1.00;;;;;;2613253;47;20162;-65
2024/02/21 00:08:09;;;;;;;4.73;3.10;;;16.10;1.00;;;;;;2611980;54;21127;-64
2024/02/21 00:10:35;;;;;;;4.23;3.43;;;16.10;1.00;;;;;;2612583;54;20148;-66
2024/02/21 00:13:01;;;;;;;4.43;3.00;;;16.10;1.00;;;;;;2612138;39;20671;-65
2024/02/21 00:15:27;;;;;;;3.20;2.90;;;16.10;1.00;;;;;;2612469;54;20475;-66
2024/02/21 00:17:53;;;;;;;5.13;3.40;;;16.10;1.00;;;;;;2612277;47;20673;-66
2024/02/21 00:20:18;;;;;;;3.63;3.30;;;16.10;1.00;;;;;;2612066;54;20160;-66
2024/02/21 00:22:44;;;;;;;3.40;3.00;;;16.10;1.00;;;;;;2611796;54;20924;-65
2024/02/21 00:25:10;;;;;;;3.80;3.27;;;16.10;1.00;;;;;;2611944;54;20173;-65
2024/02/21 00:27:36;;;;;;;3.13;2.83;;;16.10;1.00;;;;;;2612872;54;20151;-66
2024/02/21 00:30:02;;;;;;;4.50;3.27;;;16.10;1.00;;;;;;2612547;54;20427;-65
2024/02/21 00:32:28;;;;;;;2.90;2.60;;;16.10;1.00;;;;;;2611837;39;20974;-65
2024/02/21 00:34:54;;;;;;;4.80;3.13;;;16.10;1.00;;;;;;2612485;47;20408;-64
2024/02/21 00:37:19;;;;;;;3.70;3.40;;;16.10;1.00;;;;;;2611922;39;20613;-66
2024/02/21 00:39:45;;;;;;;3.73;2.87;;;16.10;1.00;;;;;;2612342;54;20163;-65
2024/02/21 00:42:11;;;;;;;4.80;3.20;;;16.10;1.00;;;;;;2612680;54;20427;-66
2024/02/21 00:44:36;;;;;;;4.27;3.30;;;16.10;1.00;;;;;;2612358;54;20741;-65
2024/02/21 00:47:02;;;;;;;5.03;3.80;;;16.10;1.00;;;;;;2612373;39;20566;-66
2024/02/21 00:49:28;;;;;;;4.20;2.77;;;16.10;1.00;;;;;;2611755;54;20147;-65
2024/02/21 00:51:53;;;;;;;3.80;3.13;;;16.10;1.00;;;;;;2610436;54;20156;-65
2024/02/21 00:54:19;;;;;;;6.47;3.97;;;16.10;1.00;;;;;;2611774;54;20146;-63
2024/02/21 00:56:45;;;;;;;3.20;2.87;;;16.10;1.00;;;;;;2612277;54;20253;-64
2024/02/21 00:59:10;;;;;;;4.67;3.20;;;16.10;1.00;;;;;;2611970;47;20163;-62
2024/02/21 01:01:36;;;;;;;3.57;3.27;;;16.10;1.00;;;;;;2611434;54;20155;-62
2024/02/21 01:04:01;;;;;;;5.20;3.03;;;16.10;1.00;;;;;;2612009;54;20151;-64
2024/02/21 01:06:27;;;;;;;3.77;3.37;;;16.10;1.00;;;;;;2612396;54;20964;-59
2024/02/21 01:08:53;;;;;;;3.57;3.27;;;16.10;1.00;;;;;;2612187;54;20752;-59
2024/02/21 01:11:18;;;;;;;3.70;3.40;;;16.10;1.00;;;;;;2611692;54;20239;-58
2024/02/21 01:13:44;;;;;;;5.40;3.87;;;16.10;1.00;;;;;;2611603;54;20197;-57
2024/02/21 01:16:10;;;;;;;5.47;3.47;;;16.10;1.00;;;;;;2611936;54;20160;-63
2024/02/21 01:18:39;;;;;;;6.27;3.50;;;16.10;1.00;;;;;;2612316;54;20164;-63
2024/02/21 01:21:06;;;;;;;3.90;3.30;;;16.10;1.00;;;;;;2612090;54;20171;-63
2024/02/21 01:23:33;;;;;;;4.00;3.50;;;16.10;1.00;;;;;;2611639;39;20812;-63
2024/02/21 01:25:59;;;;;;;3.10;2.80;;;16.10;1.00;;;;;;2611664;54;20446;-63
2024/02/21 01:28:25;;;;;;;4.23;3.10;;;16.10;1.00;;;;;;2612295;54;21046;-63
2024/02/21 01:30:51;;;;;;;6.80;3.97;;;16.10;1.00;;;;;;2611547;54;20174;-63
2024/02/21 01:33:17;;;;;;;3.50;2.90;;;16.10;1.00;;;;;;2612186;47;20286;-63
2024/02/21 01:35:42;;;;;;;5.03;3.30;;;16.10;1.00;;;;;;2611708;54;20410;-62
2024/02/21 01:38:08;;;;;;;4.97;3.30;;;16.10;1.00;;;;;;2612064;39;20938;-63
2024/02/21 01:40:34;;;;;;;3.20;2.90;;;16.10;1.00;;;;;;2611988;54;20228;-62
2024/02/21 01:42:59;;;;;;;4.47;2.90;;;16.10;1.00;;;;;;2611695;54;20163;-63
2024/02/21 01:45:25;;;;;;;3.40;3.10;;;16.10;1.00;;;;;;2612183;54;20167;-64
2024/02/21 01:47:51;;;;;;;4.33;3.70;;;16.10;1.00;;;;;;2610990;47;20230;-63
2024/02/21 01:50:17;;;;;;;5.23;3.40;;;16.10;1.00;;;;;;2612661;39;20478;-63
2024/02/21 01:52:46;;;;;;;3.50;3.20;;;16.10;1.00;;;;;;2612961;39;20613;-62
2024/02/21 01:55:13;;;;;;;3.23;2.93;;;16.10;1.00;;;;;;2612826;54;20438;-63
2024/02/21 01:57:41;;;;;;;3.27;2.80;;;16.10;1.00;;;;;;2612431;47;21292;-63
2024/02/21 02:00:08;;;;;;;4.50;3.40;;;16.10;1.00;;;;;;2612389;39;21330;-63
2024/02/21 02:02:34;;;;;;;4.60;3.00;;;16.10;1.00;;;;;;2612528;54;20471;-62
2024/02/21 02:05:00;;;;;;;3.90;2.80;;;16.10;1.00;;;;;;2611674;54;20430;-61
2024/02/21 02:07:26;;;;;;;4.80;3.57;;;16.10;1.00;;;;;;2611913;54;20163;-61
2024/02/21 02:09:52;;;;;;;4.63;3.27;;;16.10;1.00;;;;;;2612547;54;20470;-61
2024/02/21 02:12:17;;;;;;;4.50;2.93;;;16.10;1.00;;;;;;2612156;54;20143;-61
2024/02/21 02:14:43;;;;;;;3.50;3.00;;;16.10;1.00;;;;;;2613338;54;20173;-64
2024/02/21 02:17:09;;;;;;;3.37;3.07;;;16.10;1.00;;;;;;2612022;54;21013;-63
2024/02/21 02:19:35;;;;;;;3.67;3.20;;;16.10;1.00;;;;;;2612982;54;20152;-63
2024/02/21 02:22:14;;;;;;;4.23;3.33;;;16.10;1.00;;;;;;2611989;47;20439;-64
2024/02/21 02:24:39;;;;;;;2.93;2.63;;;16.10;1.00;;;;;;2613003;54;20147;-73
2024/02/21 02:27:05;;;;;;;4.53;3.10;;;16.10;1.00;;;;;;2613288;54;20426;-74
2024/02/21 02:29:32;;;;;;;6.57;3.60;;;16.10;1.00;;;;;;2613506;54;20773;-74
2024/02/21 02:31:58;;;;;;;3.67;3.33;;;16.10;1.00;;;;;;2612917;47;20179;-73
2024/02/21 02:34:24;;;;;;;3.60;3.30;;;16.10;1.00;;;;;;2613580;54;20945;-73
2024/02/21 02:36:49;;;;;;;3.93;3.57;;;16.10;1.00;;;;;;2613629;39;20772;-74
2024/02/21 02:39:15;;;;;;;3.63;3.33;;;16.10;1.00;;;;;;2612191;54;20148;-73
2024/02/21 02:41:41;;;;;;;4.27;3.30;;;16.10;1.00;;;;;;2612572;54;20158;-73
2024/02/21 02:44:06;;;;;;;4.13;2.57;;;16.10;1.00;;;;;;2613020;54;20157;-74
2024/02/21 02:46:32;;;;;;;3.10;2.80;;;16.10;1.00;;;;;;2613268;54;20185;-74
2024/02/21 02:48:57;;;;;;;5.30;2.93;;;16.10;1.00;;;;;;2613497;39;20643;-74
2024/02/21 02:51:23;;;;;;;3.17;2.90;;;16.10;1.00;;;;;;2612832;54;20156;-74
2024/02/21 02:53:49;;;;;;;3.87;3.47;;;16.10;1.00;;;;;;2613241;54;20152;-74
2024/02/21 02:56:15;;;;;;;3.70;2.87;;;16.10;1.00;;;;;;2613098;54;20156;-74
2024/02/21 02:58:42;;;;;;;6.00;2.97;;;16.10;1.00;;;;;;2612825;39;20518;-73
2024/02/21 03:01:08;;;;;;;3.60;2.37;;;16.10;1.00;;;;;;2612654;54;20392;-73
2024/02/21 03:03:34;;;;;;;2.70;2.50;;;16.10;1.00;;;;;;2612824;54;20438;-73
2024/02/21 03:05:59;;;;;;;2.83;2.50;;;16.10;1.00;;;;;;2611776;54;20611;-73
2024/02/21 03:08:25;;;;;;;4.83;3.13;;;16.10;1.00;;;;;;2612405;54;20155;-74
2024/02/21 03:10:51;;;;;;;3.10;2.80;;;16.10;1.00;;;;;;2612607;47;20179;-73
2024/02/21 03:13:16;;;;;;;3.80;2.80;;;16.10;1.00;;;;;;2612165;54;20158;-73
2024/02/21 03:15:42;;;;;;;3.90;3.00;;;16.10;1.00;;;;;;2613144;39;20548;-64
2024/02/21 03:18:08;;;;;;;3.13;2.67;;;16.10;1.00;;;;;;2612081;54;20180;-64
2024/02/21 03:20:33;;;;;;;3.60;3.23;;;16.10;1.00;;;;;;2612182;47;20172;-64
2024/02/21 03:22:59;;;;;;;3.17;2.87;;;16.10;1.00;;;;;;2612562;54;20145;-63
2024/02/21 03:25:25;;;;;;;3.13;2.73;;;16.10;1.00;;;;;;2612458;54;20160;-61
2024/02/21 03:27:51;;;;;;;6.30;3.10;;;16.10;1.00;;;;;;2612713;54;20164;-61
2024/02/21 03:30:17;;;;;;;5.00;3.23;;;16.10;1.00;;;;;;2612167;54;20163;-62
2024/02/21 03:32:42;;;;;;;3.03;2.73;;;16.10;1.00;;;;;;2612154;54;20992;-61
2024/02/21 03:35:08;;;;;;;2.57;2.37;;;16.10;1.00;;;;;;2612161;54;20285;-58
2024/02/21 03:37:34;;;;;;;2.80;2.60;;;16.10;1.00;;;;;;2612197;47;20171;-58
2024/02/21 03:40:00;;;;;;;3.30;2.67;;;16.10;1.00;;;;;;2612513;54;20190;-58
2024/02/21 03:42:25;;;;;;;4.40;2.77;;;16.00;1.00;;;;;;2612071;47;20412;-58
2024/02/21 03:44:51;;;;;;;3.40;2.50;;;16.00;1.00;;;;;;2612378;54;20156;-58
2024/02/21 03:47:17;;;;;;;4.10;3.47;;;16.10;1.00;;;;;;2612208;54;20229;-58
2024/02/21 03:49:42;;;;;;;3.77;3.37;;;16.00;1.00;;;;;;2612011;54;20571;-58
2024/02/21 03:52:08;;;;;;;4.77;3.33;;;16.10;1.00;;;;;;2612751;54;20201;-58
2024/02/21 03:54:34;;;;;;;4.67;2.60;;;16.10;1.00;;;;;;2612290;47;20172;-59
2024/02/21 03:57:00;;;;;;;3.83;2.63;;;16.10;1.00;;;;;;2612371;54;20416;-59
2024/02/21 03:59:25;;;;;;;3.77;3.37;;;16.00;1.00;;;;;;2611783;54;20149;-59
2024/02/21 04:01:54;;;;;;;3.03;2.83;;;16.10;1.00;;;;;;2610983;54;20907;-59
2024/02/21 04:04:20;;;;;;;3.17;2.87;;;16.10;1.00;;;;;;2611197;47;20308;-59
2024/02/21 04:06:50;;;;;;;3.77;2.70;;;16.10;1.00;;;;;;2612582;54;20443;-59
2024/02/21 04:09:16;;;;;;;3.30;3.00;;;16.10;1.00;;;;;;2612081;54;20428;-58
2024/02/21 04:11:42;;;;;;;3.00;2.70;;;16.10;1.00;;;;;;2611525;54;20433;-60
2024/02/21 04:14:07;;;;;;;3.97;3.00;;;16.10;1.00;;;;;;2612670;39;20621;-60
2024/02/21 04:16:34;;;;;;;4.27;3.00;;;16.00;1.00;;;;;;2611609;47;20433;-60
2024/02/21 04:18:59;;;;;;;3.63;2.67;;;16.10;1.00;;;;;;2612063;54;20150;-59
2024/02/21 04:21:25;;;;;;;3.93;3.17;;;16.00;1.00;;;;;;2612655;39;20852;-59
2024/02/21 04:23:51;;;;;;;4.27;2.93;;;16.00;1.00;;;;;;2611945;54;20165;-60
2024/02/21 04:26:16;;;;;;;3.60;2.40;;;16.00;1.00;;;;;;2612791;54;20164;-63
2024/02/21 04:28:44;;;;;;;4.70;2.93;;;16.10;1.00;;;;;;2611874;54;20164;-63
2024/02/21 04:31:10;;;;;;;4.70;4.00;;;16.10;1.00;;;;;;2612143;47;20174;-64
2024/02/21 04:33:36;;;;;;;4.23;3.20;;;16.00;1.00;;;;;;2613042;39;20817;-63
2024/02/21 04:36:02;;;;;;;3.90;3.10;;;16.10;1.00;;;;;;2612052;54;20220;-63
2024/02/21 04:38:28;;;;;;;3.10;2.80;;;16.10;1.00;;;;;;2612230;54;21298;-64
2024/02/21 04:40:55;;;;;;;2.80;2.60;;;16.00;1.00;;;;;;2611567;47;20438;-64
2024/02/21 04:43:20;;;;;;;3.53;3.00;;;16.10;1.00;;;;;;2612060;54;20417;-64
2024/02/21 04:45:46;;;;;;;4.03;2.90;;;16.10;1.00;;;;;;2612200;54;20435;-60
2024/02/21 04:48:11;;;;;;;4.90;3.10;;;16.00;1.00;;;;;;2611855;54;20186;-61
2024/02/21 04:50:37;;;;;;;3.00;2.60;;;16.10;1.00;;;;;;2612247;54;20667;-61
2024/02/21 04:53:03;;;;;;;3.80;2.73;;;16.00;1.00;;;;;;2612388;39;20616;-61
2024/02/21 04:55:28;;;;;;;3.17;2.87;;;16.00;1.00;;;;;;2612177;47;20259;-61
2024/02/21 04:57:54;;;;;;;3.37;3.10;;;16.10;1.00;;;;;;2611519;54;20155;-61
2024/02/21 05:00:20;;;;;;;5.20;3.03;;;16.00;1.00;;;;;;2612023;54;20153;-60
2024/02/21 05:02:45;;;;;;;3.07;2.70;;;16.00;1.00;;;;;;2611473;54;20167;-62
2024/02/21 05:05:11;;;;;;;3.27;3.07;;;16.00;1.00;;;;;;2610568;54;20147;-61
2024/02/21 05:07:37;;;;;;;2.70;2.33;;;16.00;1.00;;;;;;2611953;47;20165;-61
2024/02/21 05:10:03;;;;;;;5.03;2.70;;;16.00;1.00;;;;;;2612045;54;20226;-61
2024/02/21 05:12:30;;;;;;;2.80;2.60;;;16.00;1.00;;;;;;2611696;54;20201;-61
2024/02/21 05:14:55;;;;;;;2.43;2.20;;;16.00;1.00;;;;;;2611920;54;20411;-61
2024/02/21 05:17:21;;;;;;;3.60;3.03;;;16.00;1.00;;;;;;2612207;47;20415;-61
2024/02/21 05:19:46;;;;;;;5.00;3.00;;;16.00;1.00;;;;;;2611754;54;20182;-61
2024/02/21 05:22:12;;;;;;;3.07;2.37;;;16.00;1.00;;;;;;2611737;47;20174;-61
2024/02/21 05:24:40;;;;;;;4.13;3.03;;;16.00;1.00;;;;;;2611955;54;20242;-61
2024/02/21 05:27:05;;;;;;;3.20;2.70;;;16.10;1.00;;;;;;2612519;54;20196;-61
2024/02/21 05:29:31;;;;;;;3.07;2.63;;;16.00;1.00;;;;;;2612363;47;20547;-61
2024/02/21 05:31:57;;;;;;;2.70;2.50;;;16.00;1.00;;;;;;2612890;47;20736;-61
2024/02/21 05:34:23;;;;;;;3.27;2.47;;;16.00;1.00;;;;;;2613164;54;20904;-60
2024/02/21 05:36:52;;;;;;;3.00;2.27;;;16.00;1.00;;;;;;2612774;47;20444;-61
2024/02/21 05:39:18;;;;;;;4.40;2.90;;;16.00;1.00;;;;;;2611957;54;20172;-61
2024/02/21 05:41:44;;;;;;;2.47;2.27;;;16.00;1.00;;;;;;2612711;47;20500;-62
2024/02/21 05:44:10;;;;;;;2.83;2.00;;;16.00;1.00;;;;;;2612618;39;20502;-61
2024/02/21 05:46:35;;;;;;;3.50;2.90;;;16.00;1.00;;;;;;2613240;54;20151;-61
2024/02/21 05:49:01;;;;;;;2.80;2.60;;;16.00;1.00;;;;;;2612493;54;20483;-61
2024/02/21 05:51:27;;;;;;;2.53;2.33;;;16.00;1.00;;;;;;2611981;54;20160;-61
2024/02/21 05:53:52;;;;;;;2.83;2.40;;;16.00;1.00;;;;;;2612899;47;20201;-62
2024/02/21 05:56:19;;;;;;;2.80;2.60;;;16.00;1.00;;;;;;2613383;39;20726;-60
2024/02/21 05:58:44;;;;;;;3.50;2.37;;;16.00;1.00;;;;;;2611974;47;20171;-61
2024/02/21 06:01:11;;;;;;;3.33;2.67;;;16.00;1.00;;;;;;2612229;54;20487;-61
2024/02/21 06:03:37;;;;;;;2.10;2.00;;;16.00;1.00;;;;;;2612074;46;20203;-61
2024/02/21 06:06:04;;;;;;;2.73;2.53;;;16.00;1.00;;;;;;2612369;54;20401;-60
2024/02/21 06:08:30;;;;;;;2.73;2.53;;;16.10;1.00;;;;;;2612209;54;20152;-61
2024/02/21 06:10:56;;;;;;;5.27;2.73;;;16.00;1.00;;;;;;2612155;54;20985;-61
2024/02/21 06:13:23;;;;;;;4.10;2.40;;;16.00;1.00;;;;;;2612994;54;20150;-61
2024/02/21 06:15:50;;;;;;;3.33;2.67;;;16.00;1.00;;;;;;2612508;54;20166;-62
2024/02/21 06:18:19;;;;;;;2.00;1.70;;;16.00;1.00;;;;;;2612516;54;20512;-62
2024/02/21 06:20:46;;;;;;;2.00;1.90;;;16.00;1.00;;;;;;2612007;54;20413;-62
2024/02/21 06:23:12;;;;;;;2.90;2.20;;;16.00;1.00;;;;;;2612579;54;20447;-59
2024/02/21 06:25:38;;;;;;;3.13;2.30;;;16.00;1.00;;;;;;2612428;54;20424;-61
2024/02/21 06:28:05;;;;;;;2.20;1.97;;;16.00;1.00;;;;;;2612775;54;20452;-60
2024/02/21 06:30:31;;;;;;;2.23;2.03;;;16.00;1.00;;;;;;2612900;39;20920;-61
2024/02/21 06:32:56;;;;;;;2.60;2.20;;;16.10;1.00;;;;;;2612061;54;20432;-61
2024/02/21 06:35:25;;;;;;;6.47;2.73;;;16.00;1.00;;;;;;2612503;54;20148;-62
2024/02/21 06:37:51;;;;;;;2.27;1.90;;;16.00;1.00;;;;;;2612287;47;20214;-62
2024/02/21 06:40:20;;;;;;;4.83;2.20;;;16.00;1.00;;;;;;2611849;54;20441;-61
2024/02/21 06:42:46;;;;;;;5.60;4.03;;;16.00;1.00;;;;;;2612613;54;20424;-61
2024/02/21 06:45:11;;;;;;;3.07;2.30;;;16.00;1.00;;;;;;2612008;54;20433;-61
2024/02/21 06:47:37;;;;;;;1.90;1.70;;;16.00;1.00;;;;;;2611874;54;20198;-60
2024/02/21 06:50:03;;;;;;;2.20;2.00;;;16.00;1.00;;;;;;2611712;54;20159;-60
2024/02/21 06:52:28;;;;;;;2.70;1.90;;;16.00;1.00;;;;;;2612804;39;20714;-62
2024/02/21 06:54:54;;;;;;;2.20;2.00;;;16.00;1.00;;;;;;2612493;54;20432;-73
2024/02/21 06:57:20;;;;;;;1.77;1.67;;;16.00;1.00;;;;;;2612619;54;20175;-74
2024/02/21 06:59:45;;;;;;;2.07;1.93;;;16.00;1.00;;;;;;2613001;54;20162;-74
2024/02/21 07:02:11;;;;;;;2.00;1.80;;;16.00;1.00;;;;;;2612467;54;20707;-73
2024/02/21 07:04:36;;;;;;;2.23;2.03;;;16.00;1.00;;;;;;2613183;47;20167;-66
2024/02/21 07:07:02;;;;;;;2.20;2.00;;;16.00;1.00;;;;;;2612697;54;20142;-66
2024/02/21 07:09:31;;;;;;;3.10;2.07;;;16.00;1.00;;;;;;2611784;54;20164;-64
2024/02/21 07:12:00;;;;;;;2.33;2.13;;;16.00;1.00;;;;;;2612551;39;20317;-66
2024/02/21 07:14:27;;;;;;;2.40;1.87;;;16.00;1.00;;;;;;2612202;54;20428;-65
2024/02/21 07:16:54;;;;;;;2.00;1.80;;;16.00;1.00;;;;;;2612692;54;20419;-64
2024/02/21 07:19:19;;;;;;;3.63;2.00;;;16.00;1.00;;;;;;2612165;54;20485;-65
2024/02/21 07:21:45;;;;;;;2.57;2.10;;;16.00;1.00;;;;;;2612658;54;20409;-66
2024/02/21 07:24:12;;;;;;;4.57;2.13;;;16.00;1.00;;;;;;2612300;54;20147;-65
2024/02/21 07:26:40;;;;;;;2.30;2.10;;;16.00;1.00;;;;;;2612624;54;20411;-66
2024/02/21 07:29:06;;;;;;;2.30;2.10;;;16.00;1.00;;;;;;2612326;47;20417;-66
2024/02/21 07:31:38;;;;;;;2.90;2.50;;;16.00;1.00;;;;;;2612465;54;20430;-66
2024/02/21 07:34:03;;;;;;;3.17;2.13;;;16.00;1.00;;;;;;2612164;54;20157;-65
2024/02/21 07:36:30;;;;;;;2.40;1.83;;;16.00;1.00;;;;;;2612793;54;20506;-65
2024/02/21 07:38:56;;;;;;;2.13;1.93;;;16.00;1.00;;;;;;2611401;47;20217;-64
2024/02/21 07:41:21;;;;;;;2.80;2.13;;;16.00;1.00;;;;;;2612193;47;20431;-65
2024/02/21 07:43:48;;;;;;;2.03;1.87;;;16.00;1.00;;;;;;2612666;54;20183;-66
2024/02/21 07:46:14;;;;;;;2.37;2.20;;;16.00;1.00;;;;;;2611334;54;20177;-66
2024/02/21 07:48:39;;;;;;;2.27;2.07;;;16.00;1.00;;;;;;2612562;54;20427;-64
2024/02/21 07:51:05;;;;;;;2.40;2.20;;;16.00;1.00;;;;;;2613144;39;20619;-65
2024/02/21 07:53:31;;;;;;;2.53;1.90;;;16.00;1.00;;;;;;2612003;54;20662;-65
2024/02/21 07:55:56;;;;;;;2.50;2.30;;;16.00;1.00;;;;;;2612847;54;20553;-61
2024/02/21 07:58:22;;;;;;;3.17;2.00;;;16.00;1.00;;;;;;2611262;48;20172;-61
2024/02/21 08:00:48;;;;;;;4.13;2.30;;;16.00;1.00;;;;;;2611577;54;20688;-61
2024/02/21 08:03:15;;;;;;;3.97;2.77;;;16.00;1.00;;;;;;2612660;54;20255;-61
2024/02/21 08:05:41;;;;;;;2.50;2.20;;;16.00;1.00;;;;;;2612205;47;20764;-60
2024/02/21 08:08:08;;;;;;;2.00;1.90;;;16.00;1.00;;;;;;2612947;39;21180;-60
2024/02/21 08:10:33;;;;;;;2.03;1.83;;;16.00;1.00;;;;;;2611575;54;20403;-60
2024/02/21 08:12:59;;;;;;;2.93;2.20;;;16.00;1.00;;;;;;2612701;39;20658;-60
2024/02/21 08:15:29;;;;;;;4.33;2.43;;;16.00;1.00;;;;;;2611723;54;20238;-73
2024/02/21 08:18:01;;;;;;;1.60;1.50;;;16.00;1.00;;;;;;2612442;54;20696;-73
2024/02/21 08:20:27;;;;;;;2.40;2.07;;;16.00;1.00;;;;;;2612765;54;21187;-73
2024/02/21 08:22:52;;;;;;;2.97;2.77;;;16.00;1.00;;;;;;2612695;54;20394;-73
2024/02/21 08:25:18;;;;;;;2.20;1.87;;;16.00;1.00;;;;;;2612705;47;20205;-73
2024/02/21 08:27:45;;;;;;;3.03;2.73;;;16.10;1.00;;;;;;2612427;54;20200;-73
2024/02/21 08:30:11;;;;;;;2.80;2.17;;;16.00;1.00;;;;;;2612938;49;20257;-74
2024/02/21 08:32:37;;;;;;;2.20;1.83;;;16.10;1.00;;;;;;2612619;54;21063;-74
2024/02/21 08:35:03;;;;;;;2.60;2.33;;;16.00;1.00;;;;;;2613507;54;20435;-73
2024/02/21 08:37:28;;;;;;;4.10;2.30;;;16.00;1.00;;;;;;2612281;46;20183;-73
2024/02/21 08:39:54;;;;;;;2.23;2.03;;;16.00;1.00;;;;;;2612431;47;20969;-74
2024/02/21 08:42:20;;;;;;;2.33;2.13;;;16.10;1.00;;;;;;2612434;39;20659;-73
2024/02/21 08:44:45;;;;;;;4.20;2.23;;;16.10;1.00;;;;;;2612116;54;20683;-74
2024/02/21 08:47:11;;;;;;;2.50;1.97;;;16.00;1.00;;;;;;2612507;54;20199;-75
2024/02/21 08:49:38;;;;;;;2.80;2.43;;;16.10;1.00;;;;;;2613357;54;20167;-74
2024/02/21 08:52:05;;;;;;;2.03;1.90;;;16.10;1.00;;;;;;2612955;54;20156;-73
2024/02/21 08:54:31;;;;;;;2.97;2.37;;;16.10;1.00;;;;;;2613296;39;20824;-73
2024/02/21 08:56:56;;;;;;;2.77;2.40;;;16.10;1.00;;;;;;2612335;54;20404;-73
2024/02/21 08:59:22;;;;;;;2.87;2.50;;;16.10;1.00;;;;;;2612786;31;21097;-73
2024/02/21 09:01:48;;;;;;;2.23;2.03;;;16.10;1.00;;;;;;2613046;54;20158;-73
2024/02/21 09:04:13;;;;;;;2.83;2.40;;;16.10;1.00;;;;;;2612721;54;20191;-59
2024/02/21 09:06:42;;;;;;;2.60;2.40;;;16.10;1.00;;;;;;2612348;54;20164;-64
2024/02/21 09:09:08;;;;;;;1.83;1.70;;;16.10;1.00;;;;;;2611729;54;20181;-65
2024/02/21 09:11:34;;;;;;;2.80;1.77;;;16.10;1.00;;;;;;2612705;39;20774;-63
2024/02/21 09:14:00;;;;;;;2.20;1.97;;;16.00;1.00;;;;;;2611741;54;20536;-64
2024/02/21 09:16:25;;;;;;;3.20;2.20;;;16.10;1.00;;;;;;2610983;54;20427;-63
2024/02/21 09:18:52;;;;;;;2.27;1.77;;;16.10;1.00;;;;;;2611936;54;20195;-63
2024/02/21 09:21:18;;;;;;;1.73;1.63;;;16.00;1.00;;;;;;2611902;54;20163;-62
2024/02/21 09:23:45;;;;;;;3.43;2.13;;;16.00;1.00;;;;;;2612951;39;20807;-63
2024/02/21 09:26:13;;;;;;;3.10;2.23;;;16.00;1.00;;;;;;2612277;54;20402;-59
2024/02/21 09:28:39;;;;;;;1.87;1.57;;;16.00;1.00;;;;;;2611610;54;21004;-59
2024/02/21 09:31:05;;;;;;;2.80;2.00;;;16.00;1.00;;;;;;2610829;54;20426;-59
2024/02/21 09:33:30;;;;;;;2.40;2.20;;;16.10;1.00;;;;;;2611528;47;20192;-59
2024/02/21 09:35:56;;;;;;;1.83;1.63;;;16.00;1.00;;;;;;2611887;54;20711;-59
2024/02/21 09:38:22;;;;;;;3.60;2.03;;;16.00;1.00;;;;;;2611738;47;20212;-59
2024/02/21 09:40:51;;;;;;;3.27;2.03;;;16.00;1.00;;;;;;2611754;54;20167;-59
2024/02/21 09:43:18;;;;;;;2.10;1.90;;;16.10;1.00;;;;;;2611579;54;20148;-59
2024/02/21 09:45:46;;;;;;;2.43;1.93;;;16.00;1.00;;;;;;2611639;54;20391;-59
2024/02/21 09:48:46;;;;;;;2.50;1.90;;;16.10;1.00;;;;;;2611922;54;20446;-59
2024/02/21 09:51:14;;;;;;;2.33;1.80;;;16.00;1.00;;;;;;2611445;54;20397;-58
2024/02/21 09:53:41;;;;;;;2.70;1.80;;;16.00;1.00;;;;;;2611783;54;20974;-59
2024/02/21 09:56:11;;;;;;;3.50;2.33;;;16.00;1.00;;;;;;2611877;54;20391;-59
2024/02/21 09:58:38;;;;;;;2.23;2.03;;;16.00;1.00;;;;;;2611207;54;20421;-59
2024/02/21 10:01:06;;;;;;;4.67;2.73;;;16.10;1.00;;;;;;2612237;39;20884;-59
2024/02/21 10:03:33;;;;;;;2.67;2.07;;;16.00;1.00;;;;;;2611847;54;20807;-60
2024/02/21 10:06:00;;;;;;;2.37;2.17;;;16.10;1.00;;;;;;2611322;54;20398;-60
2024/02/21 10:08:26;;;;;;;2.13;1.77;;;16.00;1.00;;;;;;2611529;54;20415;-60
2024/02/21 10:10:56;;;;;;;3.00;2.70;;;16.00;1.00;;;;;;2612329;47;20453;-60
2024/02/21 10:13:28;;;;;;;2.60;1.83;;;16.10;1.00;;;;;;2612266;54;21026;-60
2024/02/21 10:16:07;;;;;;;3.30;2.17;;;16.10;1.00;;;;;;2612769;50;20394;-61
2024/02/21 10:18:35;;;;;;;2.63;2.10;;;16.10;1.00;;;;;;2611771;39;20704;-61
2024/02/21 10:21:03;;;;;;;2.57;2.13;;;16.10;1.00;;;;;;2612558;54;20974;-61
2024/02/21 10:23:29;;;;;;;2.63;1.70;;;16.10;1.00;;;;;;2612095;54;20428;-61
2024/02/21 10:26:05;;;;;;;3.23;2.37;;;16.10;1.00;;;;;;2612516;47;20443;-61
2024/02/21 10:28:31;;;;;;;2.67;2.40;;;16.10;1.00;;;;;;2612126;47;20427;-61
2024/02/21 10:30:56;;;;;;;2.87;2.57;;;16.10;1.00;;;;;;2612491;47;20438;-61
2024/02/21 10:33:24;;;;;;;2.83;2.00;;;16.10;1.00;;;;;;2612450;54;20403;-61
2024/02/21 10:35:49;;;;;;;2.93;2.50;;;16.10;1.00;;;;;;2612328;54;20158;-60
2024/02/21 10:38:15;;;;;;;3.03;2.40;;;16.10;1.00;;;;;;2613013;54;20569;-60
2024/02/21 10:40:41;;;;;;;2.57;2.17;;;16.10;1.00;;;;;;2612349;54;20164;-59
2024/02/21 10:43:13;;;;;;;3.40;2.50;;;16.10;1.00;;;;;;2612753;54;20264;-59
2024/02/21 10:45:40;;;;;;;2.90;2.30;;;16.10;1.00;;;;;;2611572;47;20211;-59
2024/02/21 10:48:15;;;;;;;2.43;2.13;;;16.10;1.00;;;;;;2613261;39;20848;-60
2024/02/21 10:51:00;;;;;;;3.30;2.67;;;16.10;1.00;;;;;;2612003;54;20430;-59
2024/02/21 10:54:02;;;;;;;2.33;2.13;;;16.10;1.00;;;;;;2612219;54;20408;-60
2024/02/21 10:56:35;;;;;;;3.80;2.10;;;16.10;1.00;;;;;;2612189;47;20409;-60
2024/02/21 10:59:02;;;;;;;5.53;2.60;;;16.10;1.00;;;;;;2612462;47;20423;-60
2024/02/21 11:01:31;;;;;;;2.33;1.93;;;16.10;1.00;;;;;;2612335;54;20417;-60
2024/02/21 11:03:59;;;;;;;2.83;2.30;;;16.10;1.00;;;;;;2612829;39;20677;-59
2024/02/21 11:06:28;;;;;;;2.87;2.20;;;16.10;1.00;;;;;;2612274;54;20412;-59
2024/02/21 11:09:11;;;;;;;2.30;1.80;;;16.10;1.00;;;;;;2611505;54;20417;-59
2024/02/21 11:11:43;;;;;;;2.87;1.60;;;16.10;1.00;;;;;;2612587;54;20400;-58
2024/02/21 11:14:10;;;;;;;1.93;1.73;;;16.10;1.00;;;;;;2611922;54;20407;-59
2024/02/21 11:16:38;;;;;;;2.57;2.20;;;16.10;1.00;;;;;;2612289;54;20418;-59
2024/02/21 11:19:09;;;;;;;2.33;2.13;;;16.20;1.00;;;;;;2612013;50;20423;-59
2024/02/21 11:21:36;;;;;;;2.10;1.87;;;16.20;1.00;;;;;;2612667;39;20858;-59
2024/02/21 11:24:02;;;;;;;3.70;2.00;;;16.20;1.00;;;;;;2612119;54;20403;-58
2024/02/21 11:26:30;;;;;;;2.43;1.97;;;16.20;1.00;;;;;;2612860;46;20423;-66
2024/02/21 11:29:00;;;;;;;2.40;2.20;;;16.20;1.00;;;;;;2612222;54;20426;-66
2024/02/21 11:31:29;;;;;;;2.60;2.40;;;16.20;1.00;;;;;;2612525;54;20395;-65
2024/02/21 11:33:57;;;;;;;2.93;2.70;;;16.20;1.00;;;;;;2612551;54;20952;-64
2024/02/21 11:36:26;;;;;;;3.10;2.03;;;16.20;1.00;;;;;;2612825;54;20422;-73
2024/02/21 11:38:53;;;;;;;1.97;1.77;;;16.20;1.00;;;;;;2612709;54;20446;-72
2024/02/21 11:41:20;;;;;;;2.10;1.90;;;16.20;1.00;;;;;;2613107;54;20435;-74
2024/02/21 11:43:48;;;;;;;2.10;1.90;;;16.20;1.00;;;;;;2612871;54;20430;-74
2024/02/21 11:46:14;;;;;;;2.57;2.33;;;16.20;1.00;;;;;;2612131;54;20414;-60
2024/02/21 11:48:41;;;;;;;3.90;2.50;;;16.30;1.00;;;;;;2612236;54;20456;-59
2024/02/21 11:51:06;;;;;;;3.23;2.43;;;16.30;1.00;;;;;;2611280;54;20438;-59
2024/02/21 11:53:33;;;;;;;2.80;2.23;;;16.20;1.00;;;;;;2612283;54;20388;-58
2024/02/21 11:55:58;;;;;;;2.97;2.70;;;16.20;1.00;;;;;;2612432;54;20178;-59
2024/02/21 11:58:26;;;;;;;4.50;2.40;;;16.20;1.00;;;;;;2610768;54;20503;-59
2024/02/21 12:00:52;;;;;;;2.40;2.20;;;16.20;1.00;;;;;;2612355;54;20162;-58
2024/02/21 12:03:18;;;;;;;2.13;1.90;;;16.20;1.00;;;;;;2612339;54;20420;-59
2024/02/21 12:05:44;;;;;;;2.63;2.10;;;16.20;1.00;;;;;;2612301;54;20508;-59
2024/02/21 12:08:09;;;;;;;2.63;2.40;;;16.20;1.00;;;;;;2612371;47;20180;-60
2024/02/21 12:10:36;;;;;;;2.33;1.97;;;16.30;1.00;;;;;;2612525;39;20618;-59
2024/02/21 12:13:11;;;;;;;2.23;2.00;;;16.30;1.00;;;;;;2611508;54;20246;-60
2024/02/21 12:15:40;;;;;;;2.20;2.00;;;16.30;1.00;;;;;;2611821;39;20905;-59
2024/02/21 12:18:05;;;;;;;3.00;2.00;;;16.30;1.00;;;;;;2612201;54;20440;-59
2024/02/21 12:20:32;;;;;;;2.30;2.10;;;16.30;1.00;;;;;;2611684;54;20526;-59
2024/02/21 12:23:00;;;;;;;2.27;2.07;;;16.30;1.00;;;;;;2612489;54;20158;-60
2024/02/21 12:25:26;;;;;;;2.50;2.10;;;16.30;1.00;;;;;;2612008;54;21067;-59
2024/02/21 12:27:52;;;;;;;2.50;2.30;;;16.30;1.00;;;;;;2611843;54;20424;-59
2024/02/21 12:30:19;;;;;;;2.90;1.67;;;16.30;1.00;;;;;;2612120;54;20419;-59
2024/02/21 12:32:45;;;;;;;3.63;2.40;;;16.30;1.00;;;;;;2611339;54;21091;-59
2024/02/21 12:35:11;;;;;;;1.97;1.77;;;16.30;1.00;;;;;;2612603;54;20407;-59
2024/02/21 12:37:37;;;;;;;4.30;2.30;;;16.30;1.00;;;;;;2612345;54;20426;-59
2024/02/21 12:40:08;;;;;;;3.40;2.07;;;16.30;1.00;;;;;;2612075;54;20194;-59
2024/02/21 12:42:34;;;;;;;2.87;2.43;;;16.30;1.00;;;;;;2612048;54;20424;-58
2024/02/21 12:45:00;;;;;;;1.97;1.77;;;16.30;1.00;;;;;;2612599;39;20828;-62
2024/02/21 12:47:26;;;;;;;3.57;2.53;;;16.30;1.00;;;;;;2612434;39;20809;-61
2024/02/21 12:49:52;;;;;;;2.40;2.00;;;16.30;1.00;;;;;;2611759;39;20776;-61
2024/02/21 12:52:19;;;;;;;2.30;2.10;;;16.30;1.00;;;;;;2611618;54;20492;-60
2024/02/21 12:54:44;;;;;;;2.40;1.80;;;16.30;1.00;;;;;;2611593;54;20406;-60